Time;durP1;ratioP1;P1;durP2;ratioP2;P2;SDS_P1;SDS_P2;PMS_P1;PMS_P2;Temp;Humidity;BMP_temperature;BMP_pressure;BME280_temperature;BME280_humidity;BME280_pressure;Samples;Min_cycle;Max_cycle;Signal;HPM_P1;HPM_P2
2022/09/04 00:01:05;;;;;;;;;;;;;;;25.45;nan;100715.38;5029731;28;1265;-33
2022/09/04 00:04:10;;;;;;;;;;;;;;;25.45;nan;100714.53;5031576;28;1300;-31
2022/09/04 00:07:05;;;;;;;;;;;;;;;25.27;nan;100722.28;5030772;28;1058;-36
2022/09/04 00:09:50;;;;;;;;;;;;;;;25.36;nan;100716.19;5029685;28;1252;-34
2022/09/04 00:12:54;;;;;;;;;;;;;;;25.43;nan;100722.69;5030336;28;967;-32
2022/09/04 00:15:51;;;;;;;;;;;;;;;25.51;nan;100714.91;5029773;28;1977;-33
2022/09/04 00:18:39;;;;;;;;;;;;;;;25.60;nan;100717.75;5031589;28;1072;-32
2022/09/04 00:21:38;;;;;;;;;;;;;;;25.55;nan;100718.16;5029716;28;934;-38
2022/09/04 00:24:40;;;;;;;;;;;;;;;25.58;nan;100720.56;5031426;28;1241;-33
2022/09/04 00:27:33;;;;;;;;;;;;;;;25.56;nan;100733.19;5031349;28;1049;-35
2022/09/04 00:30:29;;;;;;;;;;;;;;;25.61;nan;100730.13;5031459;28;1296;-33
2022/09/04 00:33:40;;;;;;;;;;;;;;;25.81;nan;100731.91;5031230;28;1141;-33
2022/09/04 00:36:29;;;;;;;;;;;;;;;25.83;nan;100736.16;5030159;28;1910;-34
2022/09/04 00:39:18;;;;;;;;;;;;;;;25.74;nan;100728.94;5029610;28;1272;-33
2022/09/04 00:42:12;;;;;;;;;;;;;;;25.73;nan;100734.38;5030951;28;962;-36
2022/09/04 00:45:03;;;;;;;;;;;;;;;25.64;nan;100740.50;5029415;28;1378;-32
2022/09/04 00:47:54;;;;;;;;;;;;;;;25.70;nan;100746.19;5029717;28;1079;-34
2022/09/04 00:50:55;;;;;;;;;;;;;;;25.64;nan;100745.84;5030535;28;1304;-36
2022/09/04 00:53:40;;;;;;;;;;;;;;;25.66;nan;100742.06;5030603;28;1057;-34
2022/09/04 00:56:31;;;;;;;;;;;;;;;25.80;nan;100755.09;5030726;28;1973;-36
2022/09/04 00:59:25;;;;;;;;;;;;;;;25.92;nan;100748.69;5032075;28;1352;-33
2022/09/04 01:02:29;;;;;;;;;;;;;;;25.78;nan;100759.69;5026928;28;621;-33
2022/09/04 01:05:33;;;;;;;;;;;;;;;25.73;nan;100761.06;5031469;28;1289;-37
2022/09/04 01:08:21;;;;;;;;;;;;;;;25.73;nan;100759.25;5032340;28;1244;-37
2022/09/04 01:11:10;;;;;;;;;;;;;;;25.75;nan;100764.44;5031055;28;656;-39
2022/09/04 01:14:02;;;;;;;;;;;;;;;25.87;nan;100766.91;5032161;28;1276;-39
2022/09/04 01:16:52;;;;;;;;;;;;;;;25.73;nan;100767.25;5031990;28;1962;-39
2022/09/04 01:19:38;;;;;;;;;;;;;;;25.60;nan;100765.75;5034056;28;1238;-39
2022/09/04 01:22:44;;;;;;;;;;;;;;;25.51;nan;100772.72;5035547;28;676;-39
2022/09/04 01:25:42;;;;;;;;;;;;;;;25.50;nan;100771.88;5035907;28;1276;-39
2022/09/04 01:28:27;;;;;;;;;;;;;;;25.56;nan;100775.00;5035818;28;1108;-36
2022/09/04 01:31:23;;;;;;;;;;;;;;;25.37;nan;100776.53;5035770;28;683;-38
2022/09/04 01:34:24;;;;;;;;;;;;;;;25.45;nan;100784.72;5034637;28;1244;-39
2022/09/04 01:37:16;;;;;;;;;;;;;;;25.44;nan;100785.69;5035245;28;1886;-39
2022/09/04 01:40:08;;;;;;;;;;;;;;;25.62;nan;100785.16;5035826;28;1280;-39
2022/09/04 01:43:00;;;;;;;;;;;;;;;25.57;nan;100785.53;5035510;28;1119;-38
2022/09/04 01:46:03;;;;;;;;;;;;;;;25.52;nan;100791.28;5035089;28;1456;-36
2022/09/04 01:48:58;;;;;;;;;;;;;;;25.53;nan;100798.28;5035132;28;1291;-37
2022/09/04 01:51:44;;;;;;;;;;;;;;;25.50;nan;100801.22;5034288;28;1294;-37
2022/09/04 01:54:33;;;;;;;;;;;;;;;25.55;nan;100790.16;5035284;28;1474;-40
2022/09/04 01:57:34;;;;;;;;;;;;;;;25.48;nan;100795.16;5035520;28;1911;-39
2022/09/04 02:00:22;;;;;;;;;;;;;;;25.64;nan;100799.19;5030423;28;1275;-38
2022/09/04 02:03:07;;;;;;;;;;;;;;;25.60;nan;100811.09;5035055;28;1204;-39
2022/09/04 02:05:55;;;;;;;;;;;;;;;25.44;nan;100807.03;5028817;28;1371;-39
2022/09/04 02:08:54;;;;;;;;;;;;;;;25.53;nan;100811.63;5035205;28;1069;-39
2022/09/04 02:11:50;;;;;;;;;;;;;;;25.73;nan;100804.59;5035051;28;645;-39
2022/09/04 02:14:39;;;;;;;;;;;;;;;25.54;nan;100809.81;5035351;28;1268;-39
2022/09/04 02:17:37;;;;;;;;;;;;;;;25.50;nan;100814.53;5029267;28;1910;-39
2022/09/04 02:20:24;;;;;;;;;;;;;;;25.25;nan;100819.38;5033464;28;1255;-35
2022/09/04 02:23:12;;;;;;;;;;;;;;;25.23;nan;100808.00;5028379;28;1578;-39
2022/09/04 02:26:02;;;;;;;;;;;;;;;25.25;nan;100816.72;5034895;28;1346;-38
2022/09/04 02:28:51;;;;;;;;;;;;;;;25.24;nan;100815.84;5034891;28;1252;-40
2022/09/04 02:31:39;;;;;;;;;;;;;;;25.11;nan;100823.16;5033657;28;632;-36
2022/09/04 02:34:43;;;;;;;;;;;;;;;25.21;nan;100816.13;5034754;28;1280;-36
2022/09/04 02:37:41;;;;;;;;;;;;;;;25.05;nan;100812.19;5034347;28;1926;-40
2022/09/04 02:40:31;;;;;;;;;;;;;;;25.02;nan;100819.44;5034564;28;1241;-39
2022/09/04 02:43:20;;;;;;;;;;;;;;;24.92;nan;100815.00;5034582;28;1127;-35
2022/09/04 02:46:26;;;;;;;;;;;;;;;25.05;nan;100806.88;5029380;28;1583;-38
2022/09/04 02:49:19;;;;;;;;;;;;;;;25.11;nan;100807.19;5028602;28;1355;-38
2022/09/04 02:52:08;;;;;;;;;;;;;;;25.08;nan;100809.28;5030973;28;824;-40
2022/09/04 02:54:57;;;;;;;;;;;;;;;25.18;nan;100812.84;5034632;28;1276;-38
2022/09/04 02:57:42;;;;;;;;;;;;;;;25.10;nan;100813.50;5029882;28;1902;-38
2022/09/04 03:00:38;;;;;;;;;;;;;;;25.16;nan;100815.66;5033738;28;1462;-35
2022/09/04 03:03:29;;;;;;;;;;;;;;;24.97;nan;100823.47;5029705;28;954;-37
2022/09/04 03:06:24;;;;;;;;;;;;;;;24.86;nan;100823.50;5033582;28;684;-38
2022/09/04 03:09:13;;;;;;;;;;;;;;;24.99;nan;100814.38;5030326;28;1465;-39
2022/09/04 03:12:02;;;;;;;;;;;;;;;24.80;nan;100810.66;5033782;28;688;-37
2022/09/04 03:14:50;;;;;;;;;;;;;;;24.79;nan;100808.94;5029552;28;1252;-40
2022/09/04 03:17:44;;;;;;;;;;;;;;;24.69;nan;100810.66;5033705;28;1966;-39
2022/09/04 03:20:38;;;;;;;;;;;;;;;24.79;nan;100806.28;5033872;28;1400;-39
2022/09/04 03:23:42;;;;;;;;;;;;;;;24.71;nan;100809.59;5032566;28;939;-39
2022/09/04 03:26:47;;;;;;;;;;;;;;;24.41;nan;100802.22;5033368;28;675;-39
2022/09/04 03:30:02;;;;;;;;;;;;;;;24.52;nan;100797.88;5033809;28;1213;-36
2022/09/04 03:32:53;;;;;;;;;;;;;;;24.29;nan;100805.84;5031865;28;1038;-40
2022/09/04 03:35:39;;;;;;;;;;;;;;;24.42;nan;100806.59;5033463;28;1213;-38
2022/09/04 03:38:37;;;;;;;;;;;;;;;24.60;nan;100811.41;5033167;28;1966;-38
2022/09/04 03:41:32;;;;;;;;;;;;;;;24.47;nan;100816.84;5033501;28;1156;-40
2022/09/04 03:44:26;;;;;;;;;;;;;;;24.28;nan;100806.84;5029236;28;1381;-37
2022/09/04 03:47:12;;;;;;;;;;;;;;;24.41;nan;100802.22;5033262;28;1560;-38
2022/09/04 03:50:29;;;;;;;;;;;;;;;24.45;nan;100813.47;5033489;28;1300;-38
2022/09/04 03:53:20;;;;;;;;;;;;;;;24.44;nan;100817.94;5023914;28;1164;-40
2022/09/04 03:56:18;;;;;;;;;;;;;;;24.44;nan;100812.63;5032630;28;1280;-36
2022/09/04 03:59:05;;;;;;;;;;;;;;;24.41;nan;100810.22;5028773;28;1351;-33
2022/09/04 04:02:09;;;;;;;;;;;;;;;24.38;nan;100806.94;5032774;28;645;-40
2022/09/04 04:05:02;;;;;;;;;;;;;;;24.42;nan;100809.25;5030328;28;1296;-40
2022/09/04 04:07:47;;;;;;;;;;;;;;;24.42;nan;100803.94;5032878;28;1052;-37
2022/09/04 04:10:32;;;;;;;;;;;;;;;24.42;nan;100809.25;5029159;28;1300;-37
2022/09/04 04:13:20;;;;;;;;;;;;;;;24.61;nan;100802.44;5032908;28;955;-39
2022/09/04 04:16:23;;;;;;;;;;;;;;;24.73;nan;100806.78;5027567;28;1395;-35
2022/09/04 04:19:12;;;;;;;;;;;;;;;24.73;nan;100807.63;5032539;28;1398;-39
2022/09/04 04:22:21;;;;;;;;;;;;;;;24.63;nan;100816.47;5027526;28;1099;-37
2022/09/04 04:25:30;;;;;;;;;;;;;;;24.46;nan;100821.34;5027866;28;1233;-38
2022/09/04 04:28:21;;;;;;;;;;;;;;;24.52;nan;100820.00;5032595;28;1109;-40
2022/09/04 04:31:25;;;;;;;;;;;;;;;24.47;nan;100816.84;5032246;28;1347;-40
2022/09/04 04:34:10;;;;;;;;;;;;;;;24.36;nan;100819.53;5032758;28;1261;-38
2022/09/04 04:37:03;;;;;;;;;;;;;;;24.19;nan;100825.34;5030239;28;1977;-37
2022/09/04 04:39:57;;;;;;;;;;;;;;;24.50;nan;100832.59;5024295;28;1296;-39
2022/09/04 04:42:54;;;;;;;;;;;;;;;24.52;nan;100835.13;5032150;28;979;-37
2022/09/04 04:45:53;;;;;;;;;;;;;;;24.59;nan;100823.91;5027523;28;1386;-38
2022/09/04 04:48:39;;;;;;;;;;;;;;;24.36;nan;100820.38;5032563;28;1022;-39
2022/09/04 04:51:43;;;;;;;;;;;;;;;24.40;nan;100819.19;5031791;28;704;-39
2022/09/04 04:54:47;;;;;;;;;;;;;;;24.41;nan;100843.97;5032039;28;1284;-38
2022/09/04 04:57:58;;;;;;;;;;;;;;;24.41;nan;100841.31;5031997;28;1910;-39
2022/09/04 05:00:52;;;;;;;;;;;;;;;24.33;nan;100844.59;5032047;28;1251;-41
2022/09/04 05:03:56;;;;;;;;;;;;;;;24.25;nan;100841.69;5031665;28;1486;-38
2022/09/04 05:06:52;;;;;;;;;;;;;;;24.29;nan;100835.13;5031635;28;724;-39
2022/09/04 05:10:04;;;;;;;;;;;;;;;24.39;nan;100840.59;5032378;28;1225;-39
2022/09/04 05:12:53;;;;;;;;;;;;;;;24.30;nan;100851.97;5032264;28;1093;-41
2022/09/04 05:15:42;;;;;;;;;;;;;;;24.38;nan;100865.50;5031788;28;1352;-38
2022/09/04 05:18:53;;;;;;;;;;;;;;;24.34;nan;100867.59;5030652;28;1910;-37
2022/09/04 05:22:14;;;;;;;;;;;;;;;24.36;nan;100857.66;5026160;28;630;-38
2022/09/04 05:25:09;;;;;;;;;;;;;;;24.39;nan;100864.56;5005710;28;1363;-39
2022/09/04 05:27:57;;;;;;;;;;;;;;;24.38;nan;100855.72;5031477;28;1119;-37
2022/09/04 05:30:49;;;;;;;;;;;;;;;24.25;nan;100849.69;5027464;28;1248;-40
2022/09/04 05:33:35;;;;;;;;;;;;;;;24.56;nan;100853.44;5031492;28;1095;-39
2022/09/04 05:36:20;;;;;;;;;;;;;;;24.70;nan;100865.63;5028511;28;692;-38
2022/09/04 05:39:05;;;;;;;;;;;;;;;24.39;nan;100878.72;5031663;28;1910;-38
2022/09/04 05:42:09;;;;;;;;;;;;;;;24.56;nan;100871.22;5031483;28;888;-36
2022/09/04 05:44:55;;;;;;;;;;;;;;;24.59;nan;100863.00;5030211;28;1142;-39
2022/09/04 05:47:46;;;;;;;;;;;;;;;24.62;nan;100876.91;5025399;28;1485;-39
2022/09/04 05:50:50;;;;;;;;;;;;;;;24.63;nan;100883.06;5031484;28;1296;-40
2022/09/04 05:53:45;;;;;;;;;;;;;;;24.68;nan;100887.06;5031745;28;1012;-40
2022/09/04 05:56:34;;;;;;;;;;;;;;;24.58;nan;100893.25;5031533;28;1058;-39
2022/09/04 05:59:19;;;;;;;;;;;;;;;24.43;nan;100893.50;5031777;28;1910;-39
2022/09/04 06:02:11;;;;;;;;;;;;;;;24.56;nan;100896.03;5031117;28;655;-36
2022/09/04 06:05:11;;;;;;;;;;;;;;;24.52;nan;100894.56;5016202;28;1235;-38
2022/09/04 06:08:07;;;;;;;;;;;;;;;24.70;nan;100890.47;5033301;28;955;-38
2022/09/04 06:10:53;;;;;;;;;;;;;;;24.74;nan;100889.25;5034316;28;1272;-39
2022/09/04 06:13:47;;;;;;;;;;;;;;;24.56;nan;100884.53;5034833;28;1092;-38
2022/09/04 06:16:32;;;;;;;;;;;;;;;24.68;nan;100891.56;5030516;28;673;-39
2022/09/04 06:19:20;;;;;;;;;;;;;;;24.76;nan;100897.97;5034517;28;1906;-39
2022/09/04 06:22:22;;;;;;;;;;;;;;;24.51;nan;100903.53;5028471;28;677;-40
2022/09/04 06:25:15;;;;;;;;;;;;;;;24.62;nan;100897.38;5034463;28;1217;-40
2022/09/04 06:28:12;;;;;;;;;;;;;;;24.57;nan;100896.88;5030496;28;975;-37
2022/09/04 06:30:57;;;;;;;;;;;;;;;24.69;nan;100893.22;5033875;28;1379;-39
2022/09/04 06:33:49;;;;;;;;;;;;;;;24.67;nan;100887.19;5034558;28;1201;-38
2022/09/04 06:36:43;;;;;;;;;;;;;;;24.76;nan;100889.97;5034065;28;676;-36
2022/09/04 06:39:39;;;;;;;;;;;;;;;24.79;nan;100891.53;5030625;28;1989;-38
2022/09/04 06:42:40;;;;;;;;;;;;;;;24.82;nan;100900.16;5034581;28;834;-39
2022/09/04 06:45:31;;;;;;;;;;;;;;;24.92;nan;100910.94;5031738;28;1331;-39
2022/09/04 06:48:23;;;;;;;;;;;;;;;24.76;nan;100921.94;5033990;28;1074;-36
2022/09/04 06:51:31;;;;;;;;;;;;;;;24.65;nan;100923.75;5033969;28;683;-39
2022/09/04 06:54:23;;;;;;;;;;;;;;;24.71;nan;100921.47;5034374;28;1229;-37
2022/09/04 06:57:09;;;;;;;;;;;;;;;24.68;nan;100920.84;5033776;28;1895;-39
2022/09/04 07:00:00;;;;;;;;;;;;;;;24.65;nan;100923.75;5033242;28;1247;-40
2022/09/04 07:03:04;;;;;;;;;;;;;;;24.72;nan;100922.28;5032469;28;1034;-40
2022/09/04 07:05:59;;;;;;;;;;;;;;;24.76;nan;100913.09;5030109;28;1276;-36
2022/09/04 07:09:18;;;;;;;;;;;;;;;24.80;nan;100915.41;5033345;28;1232;-39
2022/09/04 07:12:09;;;;;;;;;;;;;;;24.73;nan;100916.00;5023025;28;1136;-37
2022/09/04 07:14:58;;;;;;;;;;;;;;;24.84;nan;100921.34;5031192;28;1225;-39
2022/09/04 07:18:01;;;;;;;;;;;;;;;24.82;nan;100926.81;5026453;28;1903;-36
2022/09/04 07:21:05;;;;;;;;;;;;;;;24.78;nan;100917.31;5032631;28;1363;-39
2022/09/04 07:23:54;;;;;;;;;;;;;;;24.84;nan;100922.19;5032246;28;1228;-41
2022/09/04 07:26:56;;;;;;;;;;;;;;;24.93;nan;100913.47;5032727;28;653;-37
2022/09/04 07:29:53;;;;;;;;;;;;;;;25.03;nan;100926.91;5032638;28;1241;-38
2022/09/04 07:32:48;;;;;;;;;;;;;;;25.03;nan;100937.56;5028129;28;1061;-38
2022/09/04 07:35:59;;;;;;;;;;;;;;;25.08;nan;100930.03;5032014;28;1280;-37
2022/09/04 07:38:53;;;;;;;;;;;;;;;25.18;nan;100924.81;5031124;28;1961;-38
2022/09/04 07:41:41;;;;;;;;;;;;;;;25.22;nan;100929.78;5032073;28;1120;-40
2022/09/04 07:44:40;;;;;;;;;;;;;;;25.25;nan;100932.19;5029519;28;1355;-38
2022/09/04 07:47:37;;;;;;;;;;;;;;;25.36;nan;100929.50;5026595;28;1542;-36
2022/09/04 07:50:30;;;;;;;;;;;;;;;25.51;nan;100938.09;5031425;28;1316;-38
2022/09/04 07:53:16;;;;;;;;;;;;;;;25.44;nan;100937.69;5031571;28;1063;-36
2022/09/04 07:56:07;;;;;;;;;;;;;;;25.40;nan;100930.09;5032284;28;1288;-41
2022/09/04 07:59:08;;;;;;;;;;;;;;;25.39;nan;100933.72;5031917;28;1906;-40
2022/09/04 08:02:12;;;;;;;;;;;;;;;25.40;nan;100930.09;5025909;28;1011;-38
2022/09/04 08:05:16;;;;;;;;;;;;;;;25.52;nan;100935.31;5031622;28;1327;-37
2022/09/04 08:08:12;;;;;;;;;;;;;;;25.60;nan;100942.66;5022687;28;1252;-37
2022/09/04 08:11:10;;;;;;;;;;;;;;;25.63;nan;100944.22;5025144;28;1307;-38
2022/09/04 08:14:08;;;;;;;;;;;;;;;25.61;nan;100944.34;5024344;28;1300;-36
2022/09/04 08:16:57;;;;;;;;;;;;;;;25.69;nan;100952.56;5023427;28;640;-37
2022/09/04 08:20:02;;;;;;;;;;;;;;;25.69;nan;100957.03;5031192;28;1969;-33
2022/09/04 08:22:51;;;;;;;;;;;;;;;25.78;nan;100956.28;5025053;28;1045;-33
2022/09/04 08:25:39;;;;;;;;;;;;;;;25.89;nan;100953.59;5031464;28;1256;-37
2022/09/04 08:28:37;;;;;;;;;;;;;;;25.92;nan;100956.00;5025412;28;1118;-39
2022/09/04 08:31:24;;;;;;;;;;;;;;;25.94;nan;100954.88;5025790;28;751;-40
2022/09/04 08:34:33;;;;;;;;;;;;;;;25.94;nan;100962.03;5029826;28;1335;-40
2022/09/04 08:37:22;;;;;;;;;;;;;;;25.97;nan;100961.78;5026344;28;1090;-37
2022/09/04 08:40:08;;;;;;;;;;;;;;;26.13;nan;100961.34;5031697;28;1307;-40
2022/09/04 08:42:53;;;;;;;;;;;;;;;26.19;nan;100964.38;5025962;28;990;-35
2022/09/04 08:45:42;;;;;;;;;;;;;;;26.31;nan;100963.34;5031347;28;1348;-37
2022/09/04 08:48:42;;;;;;;;;;;;;;;26.35;nan;100970.13;5025087;28;1042;-41
2022/09/04 08:51:34;;;;;;;;;;;;;;;26.35;nan;100979.94;5031194;28;723;-36
2022/09/04 08:54:35;;;;;;;;;;;;;;;26.39;nan;100976.00;5022544;28;1327;-39
2022/09/04 08:57:39;;;;;;;;;;;;;;;26.39;nan;100979.53;5028400;28;1002;-35
2022/09/04 09:00:43;;;;;;;;;;;;;;;26.46;nan;100985.22;5025599;28;1657;-35
2022/09/04 09:03:44;;;;;;;;;;;;;;;26.43;nan;100983.66;5023344;28;1096;-36
2022/09/04 09:06:48;;;;;;;;;;;;;;;26.57;nan;100982.44;5030241;28;673;-32
2022/09/04 09:09:54;;;;;;;;;;;;;;;26.69;nan;100980.56;5030886;28;1193;-31
2022/09/04 09:12:42;;;;;;;;;;;;;;;26.75;nan;100980.03;5025369;28;1229;-35
2022/09/04 09:15:40;;;;;;;;;;;;;;;26.80;nan;100989.38;5030968;28;1284;-36
2022/09/04 09:18:38;;;;;;;;;;;;;;;26.85;nan;100987.13;5023596;28;1906;-45
2022/09/04 09:21:24;;;;;;;;;;;;;;;26.89;nan;100993.06;5030577;28;843;-42
2022/09/04 09:24:29;;;;;;;;;;;;;;;26.85;nan;100986.28;5026715;28;1260;-32
2022/09/04 09:27:33;;;;;;;;;;;;;;;26.80;nan;100986.69;5028263;28;1211;-34
2022/09/04 09:30:19;;;;;;;;;;;;;;;26.76;nan;100998.59;5024902;28;1332;-37
2022/09/04 09:33:11;;;;;;;;;;;;;;;26.77;nan;100989.59;5014403;28;1122;-35
2022/09/04 09:36:01;;;;;;;;;;;;;;;26.76;nan;100993.25;5024996;28;1303;-38
2022/09/04 09:38:56;;;;;;;;;;;;;;;26.74;nan;101002.38;5028219;28;1918;-39
2022/09/04 09:41:45;;;;;;;;;;;;;;;26.71;nan;101010.66;5025848;28;771;-40
2022/09/04 09:44:43;;;;;;;;;;;;;;;26.71;nan;101011.50;5027452;28;1327;-38
2022/09/04 09:47:48;;;;;;;;;;;;;;;26.71;nan;101010.66;5027839;28;1434;-38
2022/09/04 09:50:40;;;;;;;;;;;;;;;26.73;nan;101016.72;5029424;28;1300;-32
2022/09/04 09:53:28;;;;;;;;;;;;;;;26.75;nan;101023.63;5030378;28;1016;-35
2022/09/04 09:56:40;;;;;;;;;;;;;;;26.73;nan;101020.25;5030894;28;928;-37
2022/09/04 09:59:33;;;;;;;;;;;;;;;26.69;nan;101021.47;5033673;28;1983;-36
2022/09/04 10:02:37;;;;;;;;;;;;;;;26.74;nan;101027.28;5028733;28;652;-38
2022/09/04 10:05:41;;;;;;;;;;;;;;;26.74;nan;101032.63;5032158;28;1348;-41
2022/09/04 10:08:50;;;;;;;;;;;;;;;26.75;nan;101025.47;5034229;28;1013;-37
2022/09/04 10:11:41;;;;;;;;;;;;;;;26.77;nan;101031.50;5032961;28;996;-37
2022/09/04 10:14:45;;;;;;;;;;;;;;;26.76;nan;101030.66;5033929;28;1248;-36
2022/09/04 10:17:37;;;;;;;;;;;;;;;26.78;nan;101034.03;5034594;28;704;-35
2022/09/04 10:20:41;;;;;;;;;;;;;;;26.78;nan;101033.22;5027604;28;1284;-38
2022/09/04 10:23:33;;;;;;;;;;;;;;;26.79;nan;101027.72;5034139;28;1102;-33
2022/09/04 10:26:37;;;;;;;;;;;;;;;26.79;nan;101032.22;5028059;28;881;-35
2022/09/04 10:29:22;;;;;;;;;;;;;;;26.82;nan;101040.84;5034041;28;1229;-34
2022/09/04 10:32:23;;;;;;;;;;;;;;;26.84;nan;101038.06;5032472;28;780;-35
2022/09/04 10:35:19;;;;;;;;;;;;;;;26.86;nan;101041.44;5025542;28;1265;-34
2022/09/04 10:38:23;;;;;;;;;;;;;;;26.85;nan;101037.06;5033636;28;1985;-35
2022/09/04 10:41:09;;;;;;;;;;;;;;;26.87;nan;101043.16;5029987;28;1196;-32
2022/09/04 10:44:03;;;;;;;;;;;;;;;26.87;nan;101049.31;5034119;28;1201;-37
2022/09/04 10:47:09;;;;;;;;;;;;;;;26.87;nan;101045.81;5031334;28;1445;-34
2022/09/04 10:49:54;;;;;;;;;;;;;;;26.86;nan;101050.31;5027845;28;1240;-38
2022/09/04 10:53:00;;;;;;;;;;;;;;;26.88;nan;101052.84;5032670;28;660;-36
2022/09/04 10:56:04;;;;;;;;;;;;;;;26.90;nan;101037.53;5032071;28;1206;-37
2022/09/04 10:58:53;;;;;;;;;;;;;;;26.92;nan;101044.44;5033386;28;1894;-37
2022/09/04 11:01:53;;;;;;;;;;;;;;;26.95;nan;101046.00;5032961;28;1012;-36
2022/09/04 11:04:58;;;;;;;;;;;;;;;26.96;nan;101048.50;5030723;28;1280;-37
2022/09/04 11:07:44;;;;;;;;;;;;;;;26.96;nan;101042.34;5028000;28;966;-38
2022/09/04 11:10:29;;;;;;;;;;;;;;;26.96;nan;101037.00;5030787;28;1284;-35
2022/09/04 11:13:20;;;;;;;;;;;;;;;26.98;nan;101030.53;5032784;28;1109;-33
2022/09/04 11:16:15;;;;;;;;;;;;;;;26.97;nan;101018.13;5023857;28;1296;-33
2022/09/04 11:19:19;;;;;;;;;;;;;;;27.05;nan;101029.00;5033447;28;1969;-32
2022/09/04 11:22:34;;;;;;;;;;;;;;;27.09;nan;101021.56;5031496;28;680;-33
2022/09/04 11:25:25;;;;;;;;;;;;;;;27.05;nan;101023.66;5025413;28;1347;-31
2022/09/04 11:28:11;;;;;;;;;;;;;;;26.25;nan;101035.09;5032552;28;1106;-33
2022/09/04 11:31:00;;;;;;;;;;;;;;;25.91;nan;101024.53;5029368;28;1265;-32
2022/09/04 11:33:52;;;;;;;;;;;;;;;25.70;nan;101020.97;5028345;28;1410;-32
2022/09/04 11:36:56;;;;;;;;;;;;;;;25.58;nan;101019.31;5028880;28;923;-31
2022/09/04 11:40:02;;;;;;;;;;;;;;;25.57;nan;101025.59;5023886;28;1914;-32
2022/09/04 11:42:50;;;;;;;;;;;;;;;25.50;nan;101030.56;5030264;28;1137;-32
2022/09/04 11:45:36;;;;;;;;;;;;;;;25.40;nan;101026.94;5031715;28;1388;-32
2022/09/04 11:48:40;;;;;;;;;;;;;;;25.33;nan;101033.72;5030509;28;1290;-34
2022/09/04 11:51:42;;;;;;;;;;;;;;;25.32;nan;101033.88;5030013;28;1067;-33
2022/09/04 11:54:46;;;;;;;;;;;;;;;25.27;nan;101034.22;5028254;28;1189;-35
2022/09/04 11:57:56;;;;;;;;;;;;;;;25.21;nan;101034.72;5028921;28;1109;-34
2022/09/04 12:01:02;;;;;;;;;;;;;;;25.22;nan;101028.41;5020692;28;1918;-30
2022/09/04 12:03:48;;;;;;;;;;;;;;;25.16;nan;101018.25;5025707;28;1264;-30
2022/09/04 12:06:43;;;;;;;;;;;;;;;25.17;nan;101024.44;5027567;28;1341;-36
2022/09/04 12:09:42;;;;;;;;;;;;;;;25.26;nan;101019.19;5030503;28;1233;-30
2022/09/04 12:12:31;;;;;;;;;;;;;;;25.16;nan;101015.56;5026716;28;1326;-34
2022/09/04 12:15:16;;;;;;;;;;;;;;;25.15;nan;101011.22;5028829;28;1327;-31
2022/09/04 12:18:05;;;;;;;;;;;;;;;25.17;nan;101009.25;5030623;28;1120;-32
2022/09/04 12:20:53;;;;;;;;;;;;;;;25.18;nan;101010.97;5029433;28;1261;-31
2022/09/04 12:23:56;;;;;;;;;;;;;;;25.19;nan;101010.00;5032042;28;1031;-32
2022/09/04 12:27:05;;;;;;;;;;;;;;;25.24;nan;101015.81;5028941;28;1052;-33
2022/09/04 12:30:04;;;;;;;;;;;;;;;25.19;nan;101017.16;5027989;28;1264;-33
2022/09/04 12:32:49;;;;;;;;;;;;;;;25.13;nan;101013.16;5030844;28;1125;-31
2022/09/04 12:35:41;;;;;;;;;;;;;;;25.09;nan;101022.34;5026951;28;1264;-32
2022/09/04 12:38:39;;;;;;;;;;;;;;;25.14;nan;101020.16;5025989;28;1286;-32
2022/09/04 12:41:28;;;;;;;;;;;;;;;25.21;nan;101016.06;5020748;28;1180;-31
2022/09/04 12:44:32;;;;;;;;;;;;;;;25.14;nan;101014.84;5026738;28;1300;-33
2022/09/04 12:47:31;;;;;;;;;;;;;;;25.20;nan;101011.69;5025846;28;1137;-31
2022/09/04 12:50:26;;;;;;;;;;;;;;;25.39;nan;101014.56;5018759;28;1398;-33
2022/09/04 12:53:32;;;;;;;;;;;;;;;25.44;nan;101009.72;5026621;28;1104;-32
2022/09/04 12:56:57;;;;;;;;;;;;;;;25.40;nan;101005.63;5022182;28;897;-30
2022/09/04 13:00:15;;;;;;;;;;;;;;;25.26;nan;100997.03;4989808;28;1902;-31
2022/09/04 13:03:10;;;;;;;;;;;;;;;25.21;nan;101008.06;4968750;28;1080;-31
2022/09/04 13:06:20;;;;;;;;;;;;;;;25.27;nan;101012.03;5021647;28;1174;-31
2022/09/04 13:09:18;;;;;;;;;;;;;;;25.13;nan;101005.16;5026039;28;1268;-34
2022/09/04 13:12:11;;;;;;;;;;;;;;;25.15;nan;101000.53;5020909;28;814;-30
2022/09/04 13:15:09;;;;;;;;;;;;;;;25.16;nan;101002.25;5023683;28;1363;-32
2022/09/04 13:18:32;;;;;;;;;;;;;;;25.17;nan;101003.09;5030426;28;1301;-34
2022/09/04 13:21:20;;;;;;;;;;;;;;;25.14;nan;101001.50;4989382;28;961;-31
2022/09/04 13:24:08;;;;;;;;;;;;;;;25.09;nan;100995.69;5029464;28;1280;-30
2022/09/04 13:27:08;;;;;;;;;;;;;;;25.11;nan;100990.28;5024689;28;763;-32
2022/09/04 13:30:06;;;;;;;;;;;;;;;25.10;nan;100985.91;5026472;28;1299;-31
2022/09/04 13:32:54;;;;;;;;;;;;;;;25.08;nan;100983.34;5024076;28;1097;-32
2022/09/04 13:35:43;;;;;;;;;;;;;;;25.07;nan;100979.00;5023616;28;1300;-32
2022/09/04 13:38:47;;;;;;;;;;;;;;;25.07;nan;100979.00;5028728;28;1055;-33
2022/09/04 13:41:40;;;;;;;;;;;;;;;25.04;nan;100981.06;5025084;28;1113;-29
2022/09/04 13:44:42;;;;;;;;;;;;;;;25.09;nan;100985.03;5030020;28;1383;-32
2022/09/04 13:47:34;;;;;;;;;;;;;;;25.08;nan;100987.84;5024419;28;1465;-30
2022/09/04 13:50:31;;;;;;;;;;;;;;;25.08;nan;100993.19;5025937;28;1257;-31
2022/09/04 13:53:23;;;;;;;;;;;;;;;25.06;nan;100992.44;5030222;28;1482;-32
2022/09/04 13:56:13;;;;;;;;;;;;;;;25.10;nan;100992.09;5029879;28;877;-33
2022/09/04 13:59:08;;;;;;;;;;;;;;;25.00;nan;100981.31;5032897;28;1910;-32
2022/09/04 14:01:56;;;;;;;;;;;;;;;24.93;nan;100982.75;5030461;28;771;-29
2022/09/04 14:04:47;;;;;;;;;;;;;;;25.04;nan;100981.06;5025136;28;1339;-32
2022/09/04 14:07:35;;;;;;;;;;;;;;;25.08;nan;100988.66;5044145;28;917;-31
2022/09/04 14:10:32;;;;;;;;;;;;;;;25.08;nan;100988.66;5031499;28;1221;-32
2022/09/04 14:13:27;;;;;;;;;;;;;;;25.30;nan;100990.47;5034448;28;1030;-30
2022/09/04 14:16:13;;;;;;;;;;;;;;;25.80;nan;100987.22;5017852;28;1048;-31
2022/09/04 14:19:02;;;;;;;;;;;;;;;26.05;nan;100980.69;5031767;28;1993;-33
2022/09/04 14:22:14;;;;;;;;;;;;;;;26.22;nan;100982.81;5013103;28;823;-31
2022/09/04 14:25:23;;;;;;;;;;;;;;;26.33;nan;100974.72;5030041;28;1268;-31
2022/09/04 14:28:19;;;;;;;;;;;;;;;26.40;nan;100983.91;5031157;28;1107;-31
2022/09/04 14:31:06;;;;;;;;;;;;;;;26.45;nan;100967.47;5018758;28;1356;-32
2022/09/04 14:34:00;;;;;;;;;;;;;;;26.51;nan;100973.16;5029741;28;1237;-34
2022/09/04 14:37:06;;;;;;;;;;;;;;;26.57;nan;100961.94;5014303;28;948;-30
2022/09/04 14:39:58;;;;;;;;;;;;;;;26.60;nan;100972.34;5025891;28;1908;-32
2022/09/04 14:42:50;;;;;;;;;;;;;;;26.63;nan;100966.75;5033011;28;1081;-32
2022/09/04 14:45:56;;;;;;;;;;;;;;;26.65;nan;100960.44;5022887;28;1540;-31
2022/09/04 14:48:43;;;;;;;;;;;;;;;26.68;nan;100968.19;5028317;28;1018;-31
2022/09/04 14:51:32;;;;;;;;;;;;;;;26.72;nan;100959.75;5016243;28;989;-31
2022/09/04 14:54:26;;;;;;;;;;;;;;;26.75;nan;100958.66;5013393;28;1228;-33
2022/09/04 14:57:27;;;;;;;;;;;;;;;26.77;nan;100962.03;5014155;28;992;-31
2022/09/04 15:00:16;;;;;;;;;;;;;;;26.79;nan;100960.06;5024569;28;1909;-31
2022/09/04 15:03:14;;;;;;;;;;;;;;;26.82;nan;100960.69;5022713;28;1010;-34
2022/09/04 15:06:07;;;;;;;;;;;;;;;26.84;nan;100973.91;5028609;28;1232;-30
2022/09/04 15:08:52;;;;;;;;;;;;;;;26.88;nan;100973.50;5043018;28;1322;-31
2022/09/04 15:11:38;;;;;;;;;;;;;;;26.91;nan;100973.22;5014126;28;854;-31
2022/09/04 15:14:27;;;;;;;;;;;;;;;26.97;nan;100963.81;5011851;28;1312;-32
2022/09/04 15:17:27;;;;;;;;;;;;;;;26.97;nan;100971.84;5015758;28;1036;-34
2022/09/04 15:20:20;;;;;;;;;;;;;;;27.02;nan;100967.78;5025738;28;1903;-29
2022/09/04 15:23:06;;;;;;;;;;;;;;;27.06;nan;100963.00;5023017;28;1107;-31
2022/09/04 15:26:02;;;;;;;;;;;;;;;27.04;nan;100959.63;5020153;28;1241;-31
2022/09/04 15:28:49;;;;;;;;;;;;;;;27.08;nan;100950.38;5026766;28;1240;-30
2022/09/04 15:31:37;;;;;;;;;;;;;;;27.11;nan;100950.09;5014458;28;1008;-32
2022/09/04 15:34:24;;;;;;;;;;;;;;;27.16;nan;100953.19;5028636;28;1479;-32
2022/09/04 15:37:21;;;;;;;;;;;;;;;27.17;nan;100952.22;5013805;28;989;-33
2022/09/04 15:40:10;;;;;;;;;;;;;;;27.13;nan;100948.13;5026570;28;1984;-31